createdAt,value
2023-03-01T00:00:23.794Z,19.87
2023-03-01T00:05:48.543Z,23.40
2023-03-01T00:11:16.564Z,21.80
2023-03-01T00:16:41.453Z,22.27
2023-03-01T00:22:03.278Z,20.37
2023-03-01T00:27:24.967Z,21.20
2023-03-01T00:32:46.973Z,22.40
2023-03-01T00:38:09.125Z,23.07
2023-03-01T00:43:31.817Z,20.83
2023-03-01T00:48:54.541Z,23.23
2023-03-01T00:54:16.246Z,21.47
2023-03-01T00:59:37.998Z,20.40
2023-03-01T01:05:00.111Z,20.47
2023-03-01T01:10:21.815Z,22.87
2023-03-01T01:15:43.553Z,19.83
2023-03-01T01:21:07.895Z,18.27
2023-03-01T01:26:32.302Z,19.33
2023-03-01T01:31:54.344Z,20.77
2023-03-01T01:37:16.129Z,22.03
2023-03-01T01:42:37.870Z,20.80
2023-03-01T01:48:05.601Z,22.77
2023-03-01T01:53:27.586Z,21.63
2023-03-01T01:58:50.229Z,21.37
2023-03-01T02:04:12.167Z,20.23
2023-03-01T02:09:36.413Z,19.67
2023-03-01T02:14:58.180Z,23.53
2023-03-01T02:20:25.740Z,22.87
2023-03-01T02:26:01.717Z,22.23
2023-03-01T02:31:42.065Z,23.53
2023-03-01T02:37:08.346Z,23.23
2023-03-01T02:42:37.202Z,22.20
2023-03-01T02:47:59.015Z,21.60
2023-03-01T02:53:33.373Z,23.80
2023-03-01T02:58:55.432Z,22.67
2023-03-01T03:04:19.471Z,22.40
2023-03-01T03:09:41.226Z,22.13
2023-03-01T03:15:09.585Z,21.90
2023-03-01T03:20:31.558Z,22.67
2023-03-01T03:25:53.268Z,24.23
2023-03-01T03:31:15.130Z,24.13
2023-03-01T03:36:36.876Z,23.27
2023-03-01T03:41:58.624Z,24.27
2023-03-01T03:47:20.353Z,28.83
2023-03-01T03:52:43.085Z,26.07
2023-03-01T03:58:07.904Z,26.03
2023-03-01T04:03:32.791Z,25.93
2023-03-01T04:08:59.213Z,26.43
2023-03-01T04:14:20.920Z,21.87
2023-03-01T04:19:44.946Z,22.63
2023-03-01T04:25:07.865Z,24.23
2023-03-01T04:30:29.847Z,24.47
2023-03-01T04:35:52.503Z,25.20
2023-03-01T04:41:16.069Z,30.93
2023-03-01T04:46:37.827Z,27.37
2023-03-01T04:52:03.081Z,24.50
2023-03-01T04:57:24.875Z,22.87
2023-03-01T05:02:58.537Z,26.20
2023-03-01T05:08:21.666Z,27.20
2023-03-01T05:13:43.437Z,25.23
2023-03-01T05:19:12.373Z,27.13
2023-03-01T05:24:36.111Z,24.20
2023-03-01T05:29:57.849Z,26.27
2023-03-01T05:35:20.093Z,26.50
2023-03-01T05:40:46.876Z,25.60
2023-03-01T05:46:13.547Z,26.67
2023-03-01T05:51:35.429Z,28.53
2023-03-01T05:56:57.279Z,25.60
2023-03-01T06:02:19.476Z,25.40
2023-03-01T06:07:42.027Z,27.47
2023-03-01T06:13:03.802Z,24.40
2023-03-01T06:18:25.759Z,27.10
2023-03-01T06:23:47.504Z,25.00
2023-03-01T06:29:09.662Z,27.00
2023-03-01T06:34:31.839Z,26.03
2023-03-01T06:39:53.545Z,26.50
2023-03-01T06:45:15.870Z,31.50
2023-03-01T06:50:39.261Z,24.30
2023-03-01T06:56:01.228Z,27.10
2023-03-01T07:01:23.078Z,34.57
2023-03-01T07:06:44.799Z,24.97
2023-03-01T07:12:06.945Z,28.17
2023-03-01T07:17:28.779Z,27.00
2023-03-01T07:22:50.484Z,29.47
2023-03-01T07:28:12.210Z,27.47
2023-03-01T07:33:33.973Z,29.73
2023-03-01T07:38:56.729Z,29.40
2023-03-01T07:44:18.530Z,28.60
2023-03-01T07:49:40.280Z,28.87
2023-03-01T07:55:02.024Z,29.33
2023-03-01T08:00:24.079Z,28.67
2023-03-01T08:05:45.798Z,28.73
2023-03-01T08:11:10.848Z,25.87
2023-03-01T08:16:34.518Z,31.57
2023-03-01T08:21:59.137Z,29.13
2023-03-01T08:27:20.921Z,30.93
2023-03-01T08:32:42.889Z,30.87
2023-03-01T08:38:04.844Z,31.57
2023-03-01T08:43:26.599Z,31.10
2023-03-01T08:48:48.644Z,30.33
2023-03-01T08:54:15.972Z,29.10
2023-03-01T08:59:38.340Z,31.07
2023-03-01T09:05:00.124Z,32.43
2023-03-01T09:10:22.006Z,28.63
2023-03-01T09:15:43.760Z,28.33
2023-03-01T09:21:08.310Z,28.73
2023-03-01T09:26:30.547Z,30.93
2023-03-01T09:31:55.968Z,30.20
2023-03-01T09:37:17.764Z,29.27
2023-03-01T09:42:49.947Z,29.27
2023-03-01T09:48:17.691Z,31.27
2023-03-01T09:53:39.603Z,28.97
2023-03-01T09:59:21.733Z,30.13
2023-03-01T10:04:49.984Z,29.03
2023-03-01T10:10:26.769Z,34.27
2023-03-01T10:15:57.002Z,25.70
2023-03-01T10:21:20.716Z,25.20
2023-03-01T10:26:50.032Z,24.73
2023-03-01T10:32:12.223Z,25.63
2023-03-01T10:37:34.019Z,33.20
2023-03-01T10:42:59.767Z,26.37
2023-03-01T10:48:27.859Z,21.40
2023-03-01T10:53:51.781Z,30.90
2023-03-01T10:59:26.102Z,30.40
2023-03-01T11:05:24.711Z,25.57
2023-03-01T11:10:46.495Z,25.40
2023-03-01T11:16:13.114Z,24.40
2023-03-01T11:21:37.744Z,24.13
2023-03-01T11:27:03.511Z,23.57
2023-03-01T11:32:29.176Z,24.53
2023-03-01T11:38:02.826Z,27.63
2023-03-01T11:43:37.736Z,23.93
2023-03-01T11:49:17.824Z,24.37
2023-03-01T11:55:04.962Z,25.97
2023-03-01T12:00:43.694Z,23.83
2023-03-01T12:06:32.749Z,21.10
2023-03-01T12:12:24.656Z,22.60
2023-03-01T12:18:00.464Z,20.03
2023-03-01T12:23:25.387Z,21.63
2023-03-01T12:29:00.725Z,22.42
2023-03-01T12:34:32.183Z,19.40
2023-03-01T12:40:05.539Z,19.63
2023-03-01T12:45:55.448Z,20.50
2023-03-01T12:51:23.484Z,20.50
2023-03-01T12:56:53.182Z,19.40
2023-03-01T13:02:38.409Z,18.00
2023-03-01T13:08:05.131Z,19.42
2023-03-01T13:13:28.891Z,15.40
2023-03-01T13:18:50.661Z,18.17
2023-03-01T13:24:39.577Z,17.27
2023-03-01T13:30:04.532Z,16.92
2023-03-01T13:35:42.467Z,21.53
2023-03-01T13:41:05.606Z,21.13
2023-03-01T13:46:27.563Z,20.50
2023-03-01T13:51:52.832Z,21.33
2023-03-01T13:57:23.682Z,23.77
2023-03-01T14:02:45.450Z,21.90
2023-03-01T14:08:23.621Z,22.60
2023-03-01T14:14:10.580Z,22.03
2023-03-01T14:19:34.336Z,24.00
2023-03-01T14:25:03.306Z,23.55
2023-03-01T14:30:28.872Z,22.33
2023-03-01T14:35:54.850Z,22.98
2023-03-01T14:41:20.579Z,25.88
2023-03-01T14:46:45.211Z,22.70
2023-03-01T14:52:23.079Z,25.95
2023-03-01T14:57:49.152Z,24.13
2023-03-01T15:03:24.542Z,23.38
2023-03-01T15:08:51.338Z,21.67
2023-03-01T15:14:47.323Z,26.70
2023-03-01T15:20:19.440Z,24.88
2023-03-01T15:25:46.019Z,22.15
2023-03-01T15:31:36.933Z,24.80
2023-03-01T15:37:01.563Z,24.88
2023-03-01T15:42:26.368Z,22.75
2023-03-01T15:47:54.621Z,23.60
2023-03-01T15:53:16.477Z,25.25
2023-03-01T15:58:38.215Z,23.10
2023-03-01T16:03:59.976Z,21.58
2023-03-01T16:09:24.121Z,20.75
2023-03-01T16:14:45.838Z,25.52
2023-03-01T16:20:09.909Z,25.70
2023-03-01T16:25:33.324Z,25.37
2023-03-01T16:30:55.195Z,23.05
2023-03-01T16:36:19.777Z,23.35
2023-03-01T16:41:41.530Z,24.42
2023-03-01T16:47:03.338Z,23.13
2023-03-01T16:52:25.187Z,22.10
2023-03-01T16:57:46.913Z,21.55
2023-03-01T17:03:08.767Z,25.80
2023-03-01T17:08:30.690Z,22.53
2023-03-01T17:13:52.423Z,22.00
2023-03-01T17:19:18.517Z,26.10
2023-03-01T17:24:41.755Z,23.08
2023-03-01T17:30:04.894Z,24.13
2023-03-01T17:35:26.639Z,26.07
2023-03-01T17:40:48.624Z,25.53
2023-03-01T17:46:11.244Z,23.33
2023-03-01T17:51:33.428Z,24.45
2023-03-01T17:56:56.397Z,24.83
2023-03-01T18:02:19.485Z,23.53
2023-03-01T18:07:41.378Z,24.37
2023-03-01T18:13:04.997Z,24.47
2023-03-01T18:18:30.128Z,28.60
2023-03-01T18:23:52.992Z,27.53
2023-03-01T18:29:14.833Z,26.07
2023-03-01T18:34:36.586Z,27.50
2023-03-01T18:39:58.295Z,29.20
2023-03-01T18:45:20.062Z,27.10
2023-03-01T18:50:42.298Z,27.67
2023-03-01T18:56:04.435Z,30.97
2023-03-01T19:01:28.452Z,30.17
2023-03-01T19:06:50.510Z,32.40
2023-03-01T19:12:12.312Z,32.80
2023-03-01T19:17:34.634Z,33.97
2023-03-01T19:22:56.365Z,37.20
2023-03-01T19:28:18.110Z,42.43
2023-03-01T19:33:40.270Z,43.37
2023-03-01T19:39:05.105Z,44.40
2023-03-01T19:44:26.925Z,51.60
2023-03-01T19:49:48.688Z,45.10
2023-03-01T19:55:11.099Z,51.20
2023-03-01T20:00:34.386Z,39.70
2023-03-01T20:05:56.664Z,41.47
2023-03-01T20:11:19.869Z,38.17
2023-03-01T20:16:44.331Z,35.50
2023-03-01T20:22:06.177Z,35.37
2023-03-01T20:27:28.006Z,29.80
2023-03-01T20:32:49.737Z,35.33
2023-03-01T20:38:11.548Z,36.30
2023-03-01T20:43:34.645Z,33.87
2023-03-01T20:48:56.547Z,30.50
2023-03-01T20:54:18.433Z,31.03
2023-03-01T20:59:40.198Z,31.00
2023-03-01T21:05:02.135Z,35.53
2023-03-01T21:10:24.017Z,29.07
2023-03-01T21:15:57.300Z,31.33
2023-03-01T21:21:21.408Z,30.27
2023-03-01T21:26:43.188Z,30.43
2023-03-01T21:32:06.445Z,32.20
2023-03-01T21:37:28.590Z,28.43
2023-03-01T21:42:50.337Z,29.50
2023-03-01T21:48:12.050Z,29.17
2023-03-01T21:53:36.052Z,31.77
2023-03-01T21:58:58.509Z,28.87
2023-03-01T22:04:22.397Z,29.47
2023-03-01T22:09:45.529Z,31.30
2023-03-01T22:15:07.813Z,31.30
2023-03-01T22:20:29.538Z,27.77
2023-03-01T22:25:51.248Z,30.83
2023-03-01T22:31:12.987Z,28.23
2023-03-01T22:36:35.262Z,29.70
2023-03-01T22:41:56.972Z,30.70
2023-03-01T22:47:18.724Z,30.53
2023-03-01T22:52:40.510Z,32.83
2023-03-01T22:58:02.233Z,32.60
2023-03-01T23:03:24.011Z,29.37
2023-03-01T23:08:50.942Z,29.63
2023-03-01T23:14:13.202Z,30.23
2023-03-01T23:19:34.936Z,30.93
2023-03-01T23:24:56.656Z,32.80
2023-03-01T23:30:18.475Z,31.10
2023-03-01T23:35:40.271Z,30.80
2023-03-01T23:41:02.048Z,33.50
2023-03-01T23:46:27.176Z,31.77
2023-03-01T23:51:48.943Z,34.67
2023-03-01T23:57:10.673Z,37.10
